Airfield :
LOGIN :

Register | Disclaimer

   EN    FR    IT 

 










Legend :    VFR   Marginal VFR   IFR   Intensive IFR   Very Intensive IFR
Visi :
Ceiling :
>= 8 km
>= 3000ft
5 to 8 km
1000 to 3000 ft
1500m to 5 km
500 to 1000 ft
800 to 1500m
200 to 500 ft
< 800m
< 200 ft
Symbols :   Thunderstorms  Fog  Heavy snow  Heavy precipitations  Wind > 20 kt
SIGMETs :     Misc.  Thunderstorms  Icing  Turbulence  Mountain Waves  Volcanic Ashes






- Airport Elevation : 2776 ft
- IATA code : VLL


LEVD - Valladolid

CURRENT METAR :
  • 210430Z AUTO 06019KT 020V080 CAVOK M00/M03 Q1024

EXPIRED METARs :
  • 210400Z AUTO 06019KT 9000 NSC 00/M03 Q1024
  • 210330Z AUTO 06021KT CAVOK 00/M03 Q1024
  • 210300Z AUTO 05022KT CAVOK 01/M03 Q1025
  • 210230Z AUTO 05022KT CAVOK 00/M03 Q1025
  • 210200Z AUTO 06021KT CAVOK 00/M03 Q1025

TAF TAF LEVD
Valid from the 21 at 00:00 until the 22 at 00:00 UTC


202300Z 2100/2124 05022KT 9999 FEW040 TX04/2114Z TNM01/2106Z
TEMPO 2100/2124 04022G32KT
PROB40
TEMPO 2110/2118 04028G38KT
PROB40
TEMPO 2122/2124 3000 BR



MET'MAP, your aeronautical weather chart ! - Copyright ORBIFLY December 2007 - Disclaimer

ORBIFLY MET'MAP TEAM :

Programming & Development : Alexandra Zaïnal
Concept & original design : Baudouin d'Aumeries
Assistance for programming : Marc-Olivier Méhu
Technical & hardware support : Manuel Goepfert

Contact : metmap@orbifly.com




SOURCES & CREDITS :

   NOAA